createdAt,value
2022-10-27T00:01:53.934Z,37.57
2022-10-27T00:04:23.422Z,36.30
2022-10-27T00:06:52.962Z,39.90
2022-10-27T00:09:22.865Z,39.77
2022-10-27T00:11:52.199Z,35.17
2022-10-27T00:14:22.457Z,43.40
2022-10-27T00:16:56.046Z,35.27
2022-10-27T00:19:26.979Z,31.40
2022-10-27T00:21:56.587Z,37.27
2022-10-27T00:24:25.629Z,33.43
2022-10-27T00:26:55.389Z,41.13
2022-10-27T00:29:26.279Z,34.30
2022-10-27T00:31:56.014Z,38.07
2022-10-27T00:34:25.625Z,37.33
2022-10-27T00:36:55.322Z,33.87
2022-10-27T00:39:24.825Z,36.43
2022-10-27T00:41:54.937Z,36.43
2022-10-27T00:44:37.990Z,34.30
2022-10-27T00:47:13.754Z,32.30
2022-10-27T00:49:47.208Z,35.07
2022-10-27T00:52:22.369Z,41.07
2022-10-27T00:54:52.673Z,31.27
2022-10-27T00:57:22.353Z,36.30
2022-10-27T00:59:53.385Z,37.20
2022-10-27T01:02:22.424Z,29.63
2022-10-27T01:04:56.516Z,31.03
2022-10-27T01:07:27.384Z,34.73
2022-10-27T01:09:57.069Z,33.27
2022-10-27T01:12:26.173Z,32.37
2022-10-27T01:14:56.853Z,30.23
2022-10-27T01:17:46.012Z,32.63
2022-10-27T01:20:32.877Z,33.07
2022-10-27T01:23:07.333Z,32.33
2022-10-27T01:26:01.729Z,32.37
2022-10-27T01:28:59.379Z,34.60
2022-10-27T01:31:33.904Z,28.97
2022-10-27T01:34:09.777Z,24.83
2022-10-27T01:36:43.782Z,30.17
2022-10-27T01:39:19.924Z,22.50
2022-10-27T01:41:52.324Z,29.20
2022-10-27T01:44:27.408Z,34.17
2022-10-27T01:46:59.448Z,29.73
2022-10-27T01:49:36.752Z,32.63
2022-10-27T01:52:07.328Z,30.40
2022-10-27T01:54:41.372Z,27.70
2022-10-27T01:57:24.995Z,25.07
2022-10-27T02:00:04.136Z,26.30
2022-10-27T02:02:43.791Z,27.43
2022-10-27T02:05:22.242Z,24.07
2022-10-27T02:07:59.983Z,26.67
2022-10-27T02:10:34.344Z,29.57
2022-10-27T02:13:04.816Z,28.33
2022-10-27T02:15:35.661Z,31.53
2022-10-27T02:18:09.168Z,21.33
2022-10-27T02:20:42.515Z,25.43
2022-10-27T02:23:16.678Z,20.70
2022-10-27T02:26:04.815Z,22.43
2022-10-27T02:28:40.059Z,29.87
2022-10-27T02:31:11.297Z,26.50
2022-10-27T02:33:42.364Z,32.70
2022-10-27T02:36:12.944Z,30.60
2022-10-27T02:38:42.230Z,31.90
2022-10-27T02:41:11.354Z,28.43
2022-10-27T02:43:40.024Z,27.80
2022-10-27T02:46:09.220Z,31.27
2022-10-27T02:48:38.062Z,28.03
2022-10-27T02:51:08.333Z,30.50
2022-10-27T02:53:37.618Z,28.60
2022-10-27T02:56:09.419Z,25.10
2022-10-27T02:58:39.062Z,29.43
2022-10-27T03:01:08.533Z,28.20
2022-10-27T03:03:37.326Z,30.87
2022-10-27T03:06:08.540Z,26.33
2022-10-27T03:08:37.955Z,27.63
2022-10-27T03:11:07.446Z,27.83
2022-10-27T03:13:36.798Z,26.93
2022-10-27T03:16:05.946Z,21.70
2022-10-27T03:18:35.302Z,28.93
2022-10-27T03:21:04.471Z,22.27
2022-10-27T03:23:35.898Z,28.97
2022-10-27T03:26:05.262Z,25.07
2022-10-27T03:28:35.779Z,27.57
2022-10-27T03:31:05.637Z,25.63
2022-10-27T03:33:34.910Z,25.30
2022-10-27T03:36:04.062Z,24.67
2022-10-27T03:38:33.573Z,30.10
2022-10-27T03:41:03.910Z,29.23
2022-10-27T03:43:33.417Z,24.10
2022-10-27T03:46:02.796Z,28.70
2022-10-27T03:48:31.965Z,27.90
2022-10-27T03:51:01.306Z,23.97
2022-10-27T03:53:30.650Z,27.07
2022-10-27T03:55:59.353Z,20.37
2022-10-27T03:58:30.078Z,23.73
2022-10-27T04:01:03.473Z,27.80
2022-10-27T04:03:33.362Z,26.73
2022-10-27T04:06:02.471Z,28.07
2022-10-27T04:08:31.451Z,25.07
2022-10-27T04:11:00.673Z,17.00
2022-10-27T04:13:31.377Z,20.73
2022-10-27T04:16:02.320Z,21.13
2022-10-27T04:18:31.487Z,24.80
2022-10-27T04:21:04.897Z,18.03
2022-10-27T04:23:34.684Z,37.43
2022-10-27T04:26:03.664Z,23.63
2022-10-27T04:28:34.168Z,27.00
2022-10-27T04:31:03.425Z,28.90
2022-10-27T04:33:32.653Z,19.67
2022-10-27T04:36:01.980Z,16.23
2022-10-27T04:38:33.453Z,18.40
2022-10-27T04:41:06.129Z,15.53
2022-10-27T04:43:37.370Z,13.57
2022-10-27T04:46:06.705Z,14.30
2022-10-27T04:48:35.469Z,14.73
2022-10-27T04:51:05.666Z,15.33
2022-10-27T04:53:35.021Z,17.60
2022-10-27T04:56:04.105Z,16.97
2022-10-27T04:58:33.300Z,14.23
2022-10-27T05:01:08.979Z,15.70
2022-10-27T05:03:38.692Z,18.73
2022-10-27T05:06:08.656Z,18.57
2022-10-27T05:08:38.049Z,20.00
2022-10-27T05:11:10.283Z,24.43
2022-10-27T05:13:42.166Z,21.10
2022-10-27T05:16:12.785Z,28.53
2022-10-27T05:18:42.408Z,30.93
2022-10-27T05:21:11.688Z,31.77
2022-10-27T05:23:45.250Z,33.23
2022-10-27T05:26:16.579Z,31.17
2022-10-27T05:28:45.936Z,32.37
2022-10-27T05:31:17.344Z,36.87
2022-10-27T05:33:46.709Z,32.83
2022-10-27T05:36:15.735Z,37.07
2022-10-27T05:38:47.428Z,29.80
2022-10-27T05:41:16.557Z,20.37
2022-10-27T05:43:45.700Z,22.17
2022-10-27T05:46:15.975Z,18.83
2022-10-27T05:48:45.269Z,25.50
2022-10-27T05:51:16.770Z,21.20
2022-10-27T05:53:52.391Z,21.47
2022-10-27T05:56:22.110Z,23.03
2022-10-27T05:58:51.875Z,20.13
2022-10-27T06:01:24.372Z,27.97
2022-10-27T06:03:53.189Z,18.23
2022-10-27T06:06:23.983Z,19.53
2022-10-27T06:08:53.260Z,22.93
2022-10-27T06:11:22.844Z,24.57
2022-10-27T06:13:52.188Z,46.87
2022-10-27T06:16:25.793Z,50.30
2022-10-27T06:18:55.694Z,47.23
2022-10-27T06:21:25.417Z,53.00
2022-10-27T06:23:54.465Z,32.57
2022-10-27T06:26:23.390Z,34.00
2022-10-27T06:28:52.719Z,30.07
2022-10-27T06:31:24.188Z,26.17
2022-10-27T06:33:53.242Z,30.13
2022-10-27T06:36:22.526Z,28.17
2022-10-27T06:38:51.286Z,31.77
2022-10-27T06:41:20.247Z,33.77
2022-10-27T06:43:49.830Z,31.17
2022-10-27T06:46:18.574Z,29.23
2022-10-27T06:48:49.642Z,29.93
2022-10-27T06:51:19.193Z,33.57
2022-10-27T06:53:48.686Z,35.27
2022-10-27T06:56:19.562Z,38.73
2022-10-27T06:58:53.195Z,37.73
2022-10-27T07:01:24.012Z,40.07
2022-10-27T07:03:54.839Z,44.80
2022-10-27T07:06:29.515Z,46.00
2022-10-27T07:08:58.699Z,45.20
2022-10-27T07:11:29.037Z,42.30
2022-10-27T07:14:00.037Z,45.20
2022-10-27T07:16:32.879Z,36.37
2022-10-27T07:19:09.379Z,49.67
2022-10-27T07:21:38.639Z,44.17
2022-10-27T07:24:11.970Z,52.10
2022-10-27T07:26:43.452Z,53.43
2022-10-27T07:29:13.069Z,50.37
2022-10-27T07:31:45.293Z,46.43
2022-10-27T07:34:16.113Z,64.13
2022-10-27T07:36:45.367Z,58.17
2022-10-27T07:39:14.457Z,53.70
2022-10-27T07:41:43.512Z,62.67
2022-10-27T07:44:12.724Z,60.57
2022-10-27T07:46:44.069Z,64.10
2022-10-27T07:49:15.657Z,51.30
2022-10-27T07:51:45.096Z,49.67
2022-10-27T07:54:14.186Z,44.07
2022-10-27T07:56:43.158Z,45.77
2022-10-27T08:01:43.272Z,40.97
2022-10-27T08:04:13.156Z,40.70
2022-10-27T08:06:43.858Z,28.23
2022-10-27T08:09:16.430Z,29.40
2022-10-27T08:11:48.571Z,28.83
2022-10-27T08:14:18.159Z,22.70
2022-10-27T08:19:17.259Z,21.30
2022-10-27T08:21:48.692Z,17.77
2022-10-27T08:24:17.889Z,19.45
2022-10-27T08:26:47.088Z,22.73
2022-10-27T08:29:16.592Z,12.95
2022-10-27T08:31:45.979Z,16.08
2022-10-27T08:36:44.347Z,19.92
2022-10-27T08:39:16.547Z,18.98
2022-10-27T08:41:56.434Z,14.30
2022-10-27T08:44:30.721Z,28.73
2022-10-27T08:47:06.030Z,14.85
2022-10-27T08:49:40.490Z,12.23
2022-10-27T08:52:19.156Z,16.40
2022-10-27T08:55:00.714Z,16.50
2022-10-27T09:00:14.699Z,14.77
2022-10-27T09:02:55.771Z,19.50
2022-10-27T09:05:51.296Z,17.95
2022-10-27T09:08:27.995Z,21.67
2022-10-27T09:11:05.062Z,10.82
2022-10-27T09:13:48.622Z,16.50
2022-10-27T09:16:23.806Z,15.10
2022-10-27T09:18:57.299Z,19.05
2022-10-27T09:21:29.105Z,12.65
2022-10-27T09:24:02.609Z,21.67
2022-10-27T09:26:35.619Z,11.88
2022-10-27T09:29:10.421Z,15.85
2022-10-27T09:31:44.426Z,11.40
2022-10-27T09:34:25.950Z,12.50
2022-10-27T09:36:55.426Z,14.55
2022-10-27T09:39:24.822Z,18.38
2022-10-27T09:41:56.596Z,13.35
2022-10-27T09:44:30.080Z,20.20
2022-10-27T09:46:59.325Z,13.02
2022-10-27T09:49:34.049Z,16.95
2022-10-27T09:52:09.738Z,11.05
2022-10-27T09:54:43.334Z,17.50
2022-10-27T09:57:19.670Z,16.42
2022-10-27T09:59:54.516Z,11.05
2022-10-27T10:02:27.523Z,17.35
2022-10-27T10:04:57.052Z,18.27
2022-10-27T10:07:37.558Z,11.18
2022-10-27T10:10:18.349Z,14.20
2022-10-27T10:12:49.357Z,16.45
2022-10-27T10:15:21.676Z,13.93
2022-10-27T10:17:56.634Z,16.77
2022-10-27T10:20:36.054Z,10.95
2022-10-27T10:23:09.625Z,17.58
2022-10-27T10:25:47.498Z,15.88
2022-10-27T10:28:25.080Z,15.88
2022-10-27T10:30:58.001Z,13.63
2022-10-27T10:33:31.172Z,10.90
2022-10-27T10:36:00.247Z,12.75
2022-10-27T10:38:32.444Z,19.02
2022-10-27T10:41:04.818Z,11.68
2022-10-27T10:43:35.124Z,14.93
2022-10-27T10:46:05.095Z,16.02
2022-10-27T10:48:42.343Z,17.08
2022-10-27T10:51:50.460Z,13.88
2022-10-27T10:54:33.255Z,19.15
2022-10-27T10:57:03.742Z,14.63
2022-10-27T10:59:36.543Z,20.42
2022-10-27T11:02:17.681Z,14.80
2022-10-27T11:04:49.204Z,14.25
2022-10-27T11:07:25.411Z,31.02
2022-10-27T11:10:01.798Z,25.63
2022-10-27T11:12:39.170Z,12.38
2022-10-27T11:15:20.082Z,12.80
2022-10-27T11:17:52.767Z,14.48
2022-10-27T11:20:25.935Z,28.98
2022-10-27T11:22:56.266Z,11.30
2022-10-27T11:25:30.278Z,11.57
2022-10-27T11:28:05.310Z,20.50
2022-10-27T11:30:40.754Z,13.80
2022-10-27T11:33:18.778Z,11.85
2022-10-27T11:35:53.859Z,11.27
2022-10-27T11:38:35.678Z,15.90
2022-10-27T11:41:10.590Z,12.98
2022-10-27T11:43:45.545Z,15.15
2022-10-27T11:46:22.686Z,27.98
2022-10-27T11:48:56.134Z,16.60
2022-10-27T11:51:31.133Z,15.40
2022-10-27T11:54:00.695Z,20.38
2022-10-27T11:56:43.442Z,18.10
2022-10-27T11:59:23.161Z,13.43
2022-10-27T12:02:07.649Z,15.50
2022-10-27T12:04:48.212Z,16.77
2022-10-27T12:07:34.371Z,12.70
2022-10-27T12:10:18.226Z,15.20
2022-10-27T12:12:50.321Z,16.30
2022-10-27T12:15:26.657Z,14.48
2022-10-27T12:18:03.755Z,27.10
2022-10-27T12:20:43.982Z,15.52
2022-10-27T12:23:17.449Z,16.20
2022-10-27T12:25:54.602Z,14.38
2022-10-27T12:28:28.160Z,18.15
2022-10-27T12:31:01.041Z,21.60
2022-10-27T12:33:36.712Z,19.55
2022-10-27T12:36:11.608Z,16.23
2022-10-27T12:38:48.164Z,12.27
2022-10-27T12:41:26.712Z,13.82
2022-10-27T12:44:04.672Z,21.75
2022-10-27T12:46:54.180Z,12.32
2022-10-27T12:49:32.128Z,14.45
2022-10-27T12:52:06.977Z,14.32
2022-10-27T12:54:52.986Z,29.45
2022-10-27T12:57:30.491Z,14.63
2022-10-27T13:00:05.262Z,15.68
2022-10-27T13:02:40.158Z,13.18
2022-10-27T13:05:37.063Z,14.23
2022-10-27T13:08:51.156Z,13.43
2022-10-27T13:11:52.465Z,12.75
2022-10-27T13:15:00.503Z,16.40
2022-10-27T13:17:40.755Z,12.68
2022-10-27T13:20:20.821Z,13.70
2022-10-27T13:22:54.027Z,13.45
2022-10-27T13:25:28.227Z,27.42
2022-10-27T13:28:06.795Z,12.27
2022-10-27T13:30:38.229Z,16.58
2022-10-27T13:33:34.054Z,13.75
2022-10-27T13:36:21.658Z,16.45
2022-10-27T13:38:52.222Z,16.17
2022-10-27T13:41:51.528Z,10.63
2022-10-27T13:44:29.007Z,14.57
2022-10-27T13:47:14.199Z,12.80
2022-10-27T13:49:54.120Z,13.00
2022-10-27T13:52:27.183Z,24.52
2022-10-27T13:55:02.638Z,10.38
2022-10-27T13:58:03.823Z,17.23
2022-10-27T14:01:20.786Z,14.82
2022-10-27T14:04:21.748Z,12.68
2022-10-27T14:06:59.342Z,18.88
2022-10-27T14:09:46.106Z,22.67
2022-10-27T14:12:20.503Z,23.65
2022-10-27T14:14:56.073Z,22.00
2022-10-27T14:17:29.028Z,29.10
2022-10-27T14:20:02.945Z,22.17
2022-10-27T14:22:38.476Z,27.00
2022-10-27T14:25:19.584Z,25.67
2022-10-27T14:27:49.308Z,16.58
2022-10-27T14:30:22.937Z,19.73
2022-10-27T14:32:52.021Z,28.15
2022-10-27T14:35:28.501Z,23.95
2022-10-27T14:38:03.508Z,26.02
2022-10-27T14:40:41.276Z,20.30
2022-10-27T14:43:16.801Z,26.40
2022-10-27T14:45:46.645Z,15.10
2022-10-27T14:48:25.717Z,29.83
2022-10-27T14:50:55.593Z,63.13
2022-10-27T14:53:33.299Z,36.88
2022-10-27T14:56:20.219Z,28.25
2022-10-27T14:58:54.761Z,27.65
2022-10-27T15:01:35.007Z,19.27
2022-10-27T15:04:17.649Z,32.38
2022-10-27T15:06:47.862Z,26.95
2022-10-27T15:09:29.380Z,16.15
2022-10-27T15:12:01.777Z,17.90
2022-10-27T15:14:34.341Z,18.77
2022-10-27T15:17:03.686Z,16.25
2022-10-27T15:19:33.540Z,15.52
2022-10-27T15:22:05.021Z,25.08
2022-10-27T15:24:34.648Z,13.48
2022-10-27T15:27:06.583Z,15.15
2022-10-27T15:29:50.965Z,16.30
2022-10-27T15:32:29.340Z,18.75
2022-10-27T15:34:58.347Z,15.10
2022-10-27T15:37:34.345Z,14.02
2022-10-27T15:40:44.541Z,27.90
2022-10-27T15:43:33.306Z,20.00
2022-10-27T15:46:11.868Z,15.80
2022-10-27T15:48:42.028Z,23.45
2022-10-27T15:51:14.787Z,30.27
2022-10-27T15:53:50.543Z,46.38
2022-10-27T15:56:39.967Z,33.53
2022-10-27T15:59:16.951Z,51.78
2022-10-27T16:01:47.530Z,43.97
2022-10-27T16:04:31.495Z,33.60
2022-10-27T16:07:34.204Z,17.63
2022-10-27T16:10:03.442Z,28.53
2022-10-27T16:12:44.126Z,30.33
2022-10-27T16:15:22.387Z,47.10
2022-10-27T16:17:55.133Z,66.90
2022-10-27T16:20:28.492Z,81.40
2022-10-27T16:22:57.823Z,56.40
2022-10-27T16:25:31.587Z,47.10
2022-10-27T16:28:04.394Z,41.77
2022-10-27T16:30:35.639Z,32.63
2022-10-27T16:33:05.907Z,27.83
2022-10-27T16:35:36.999Z,34.90
2022-10-27T16:38:05.861Z,29.53
2022-10-27T16:40:38.172Z,25.10
2022-10-27T16:43:08.791Z,28.33
2022-10-27T16:45:44.167Z,35.70
2022-10-27T16:48:14.863Z,28.47
2022-10-27T16:50:43.999Z,30.17
2022-10-27T16:53:14.123Z,31.30
2022-10-27T16:55:43.642Z,35.90
2022-10-27T16:58:12.628Z,24.83
2022-10-27T17:00:44.836Z,28.73
2022-10-27T17:03:16.428Z,25.63
2022-10-27T17:05:46.063Z,33.33
2022-10-27T17:08:15.263Z,38.73
2022-10-27T17:10:44.797Z,21.53
2022-10-27T17:13:13.577Z,20.93
2022-10-27T17:15:43.802Z,25.47
2022-10-27T17:18:13.811Z,23.80
2022-10-27T17:20:43.093Z,26.73
2022-10-27T17:23:12.005Z,24.53
2022-10-27T17:25:40.834Z,31.80
2022-10-27T17:28:10.321Z,21.10
2022-10-27T17:30:39.552Z,33.80
2022-10-27T17:33:10.549Z,24.43
2022-10-27T17:35:39.690Z,30.77
2022-10-27T17:38:09.174Z,24.80
2022-10-27T17:40:39.653Z,30.47
2022-10-27T17:43:10.521Z,21.73
2022-10-27T17:45:40.670Z,27.53
2022-10-27T17:48:13.023Z,24.57
2022-10-27T17:50:42.226Z,24.03
2022-10-27T17:53:11.072Z,28.80
2022-10-27T17:55:40.700Z,40.23
2022-10-27T17:58:10.693Z,46.53
2022-10-27T18:00:42.774Z,41.83
2022-10-27T18:03:13.469Z,44.63
2022-10-27T18:05:43.042Z,36.93
2022-10-27T18:08:12.319Z,37.53
2022-10-27T18:10:43.085Z,30.50
2022-10-27T18:13:12.766Z,36.27
2022-10-27T18:15:42.115Z,35.80
2022-10-27T18:18:13.053Z,28.73
2022-10-27T18:20:42.817Z,35.77
2022-10-27T18:23:13.924Z,27.63
2022-10-27T18:25:43.561Z,26.57
2022-10-27T18:28:13.512Z,48.13
2022-10-27T18:30:42.701Z,27.37
2022-10-27T18:33:14.092Z,28.73
2022-10-27T18:35:43.261Z,36.47
2022-10-27T18:38:12.412Z,32.73
2022-10-27T18:40:41.226Z,35.17
2022-10-27T18:43:09.984Z,53.63
2022-10-27T18:45:39.093Z,63.43
2022-10-27T18:48:08.185Z,50.93
2022-10-27T18:50:40.141Z,75.67
2022-10-27T18:53:11.395Z,49.93
2022-10-27T18:55:40.957Z,40.00
2022-10-27T18:58:09.873Z,35.93
2022-10-27T19:00:39.116Z,39.17
2022-10-27T19:03:07.861Z,39.57
2022-10-27T19:05:38.395Z,44.57
2022-10-27T19:08:07.516Z,40.60
2022-10-27T19:10:38.075Z,168.63
2022-10-27T19:13:07.692Z,38.17
2022-10-27T19:15:37.239Z,38.93
2022-10-27T19:18:07.240Z,36.27
2022-10-27T19:20:38.072Z,47.60
2022-10-27T19:23:06.898Z,61.77
2022-10-27T19:25:35.631Z,61.93
2022-10-27T19:28:04.687Z,40.63
2022-10-27T19:30:33.934Z,63.40
2022-10-27T19:33:02.959Z,43.27
2022-10-27T19:35:31.679Z,51.67
2022-10-27T19:38:04.137Z,45.23
2022-10-27T19:40:33.871Z,42.03
2022-10-27T19:43:03.503Z,46.00
2022-10-27T19:45:35.811Z,58.63
2022-10-27T19:48:06.867Z,54.43
2022-10-27T19:50:36.659Z,42.97
2022-10-27T19:53:08.048Z,45.77
2022-10-27T19:55:37.726Z,41.50
2022-10-27T19:58:07.659Z,39.07
2022-10-27T20:00:38.099Z,38.17
2022-10-27T20:03:07.375Z,49.30
2022-10-27T20:05:37.007Z,63.93
2022-10-27T20:08:09.464Z,43.33
2022-10-27T20:10:41.978Z,33.83
2022-10-27T20:13:12.203Z,38.63
2022-10-27T20:15:41.342Z,43.53
2022-10-27T20:18:10.673Z,47.90
2022-10-27T20:20:40.230Z,57.30
2022-10-27T20:23:11.398Z,46.53
2022-10-27T20:26:10.691Z,50.43
2022-10-27T20:28:55.226Z,47.73
2022-10-27T20:31:24.812Z,44.37
2022-10-27T20:33:54.147Z,34.27
2022-10-27T20:36:24.321Z,39.33
2022-10-27T20:39:00.477Z,33.13
2022-10-27T20:41:30.750Z,38.90
2022-10-27T20:44:02.357Z,42.30
2022-10-27T20:46:47.361Z,41.90
2022-10-27T20:49:17.337Z,44.67
2022-10-27T20:51:46.491Z,44.60
2022-10-27T20:54:17.608Z,37.60
2022-10-27T20:56:49.450Z,41.50
2022-10-27T20:59:21.366Z,37.17
2022-10-27T21:01:54.489Z,40.40
2022-10-27T21:04:23.838Z,68.70
2022-10-27T21:06:53.960Z,64.90
2022-10-27T21:09:25.653Z,59.67
2022-10-27T21:11:56.088Z,54.57
2022-10-27T21:14:25.596Z,87.07
2022-10-27T21:16:54.940Z,72.07
2022-10-27T21:19:24.621Z,64.10
2022-10-27T21:21:56.594Z,71.20
2022-10-27T21:24:27.498Z,76.43
2022-10-27T21:26:56.653Z,67.17
2022-10-27T21:29:28.500Z,76.13
2022-10-27T21:31:58.868Z,68.13
2022-10-27T21:34:28.022Z,76.60
2022-10-27T21:36:57.080Z,82.93
2022-10-27T21:39:31.216Z,90.23
2022-10-27T21:42:00.947Z,94.67
2022-10-27T21:44:30.687Z,94.27
2022-10-27T21:47:00.676Z,104.07
2022-10-27T21:49:30.200Z,94.53
2022-10-27T21:52:03.595Z,84.53
2022-10-27T21:54:34.296Z,75.47
2022-10-27T21:57:06.011Z,191.53
2022-10-27T21:59:35.423Z,102.03
2022-10-27T22:02:04.989Z,103.60
2022-10-27T22:04:34.859Z,109.77
2022-10-27T22:07:04.357Z,107.23
2022-10-27T22:09:34.936Z,105.87
2022-10-27T22:12:04.947Z,98.87
2022-10-27T22:14:34.071Z,99.53
2022-10-27T22:17:02.933Z,109.83
2022-10-27T22:19:33.151Z,104.43
2022-10-27T22:24:54.112Z,113.33
2022-10-27T22:27:27.801Z,101.40
2022-10-27T22:29:57.235Z,89.50
2022-10-27T22:32:26.531Z,73.10
2022-10-27T22:34:56.095Z,75.77
2022-10-27T22:37:24.759Z,69.67
2022-10-27T22:39:55.775Z,54.30
2022-10-27T22:42:25.079Z,57.00
2022-10-27T22:44:53.991Z,67.33
2022-10-27T22:47:22.743Z,60.20
2022-10-27T22:49:53.119Z,52.67
2022-10-27T22:52:24.594Z,59.17
2022-10-27T22:54:55.361Z,80.20
2022-10-27T22:57:24.138Z,133.97
2022-10-27T22:59:53.651Z,56.37
2022-10-27T23:02:22.654Z,55.13
2022-10-27T23:04:52.962Z,59.50
2022-10-27T23:07:22.361Z,77.87
2022-10-27T23:09:51.803Z,73.07
2022-10-27T23:12:22.788Z,87.63
2022-10-27T23:14:51.795Z,90.10
2022-10-27T23:17:21.402Z,94.13
2022-10-27T23:19:50.115Z,103.73
2022-10-27T23:22:19.163Z,97.67
2022-10-27T23:24:48.309Z,103.10
2022-10-27T23:27:16.992Z,85.37
2022-10-27T23:29:47.570Z,124.60
2022-10-27T23:32:16.326Z,111.77
2022-10-27T23:34:45.490Z,67.33
2022-10-27T23:37:14.770Z,59.33
2022-10-27T23:39:44.066Z,64.23
2022-10-27T23:42:13.061Z,63.93
2022-10-27T23:44:43.322Z,183.80
2022-10-27T23:47:13.465Z,91.57
2022-10-27T23:49:42.933Z,83.43
2022-10-27T23:52:11.701Z,96.97
2022-10-27T23:54:43.108Z,89.10
2022-10-27T23:57:15.425Z,96.20
2022-10-27T23:59:44.190Z,94.70
